createdAt,value
2018-12-15T00:01:20.023Z,46.00
2018-12-15T00:03:47.572Z,46.10
2018-12-15T00:06:15.183Z,37.03
2018-12-15T00:08:42.717Z,47.55
2018-12-15T00:11:10.279Z,45.90
2018-12-15T00:13:37.865Z,46.85
2018-12-15T00:16:05.465Z,41.75
2018-12-15T00:18:33.002Z,45.75
2018-12-15T00:21:00.610Z,43.68
2018-12-15T00:23:28.142Z,43.08
2018-12-15T00:25:55.697Z,45.35
2018-12-15T00:28:23.273Z,43.90
2018-12-15T00:30:50.877Z,38.70
2018-12-15T00:33:18.418Z,38.90
2018-12-15T00:35:45.982Z,47.62
2018-12-15T00:38:13.525Z,40.65
2018-12-15T00:40:41.122Z,44.80
2018-12-15T00:43:08.668Z,44.33
2018-12-15T00:45:36.230Z,47.00
2018-12-15T00:48:03.770Z,46.65
2018-12-15T00:50:31.331Z,46.63
2018-12-15T00:52:58.870Z,47.55
2018-12-15T00:55:26.417Z,41.53
2018-12-15T00:57:53.953Z,47.93
2018-12-15T01:00:21.549Z,44.45
2018-12-15T01:02:49.099Z,49.63
2018-12-15T01:05:16.737Z,50.67
2018-12-15T01:07:44.294Z,47.88
2018-12-15T01:10:11.902Z,49.60
2018-12-15T01:12:39.442Z,42.88
2018-12-15T01:15:07.050Z,46.88
2018-12-15T01:17:34.673Z,44.58
2018-12-15T01:20:02.266Z,41.30
2018-12-15T01:22:29.809Z,48.95
2018-12-15T01:24:57.365Z,43.80
2018-12-15T01:27:24.912Z,52.48
2018-12-15T01:29:52.508Z,44.73
2018-12-15T01:32:20.045Z,50.67
2018-12-15T01:34:47.601Z,52.15
2018-12-15T01:37:15.138Z,52.83
2018-12-15T01:39:42.689Z,49.60
2018-12-15T01:42:10.230Z,49.53
2018-12-15T01:44:37.781Z,48.75
2018-12-15T01:47:05.354Z,51.88
2018-12-15T01:49:32.945Z,49.00
2018-12-15T01:52:00.498Z,52.25
2018-12-15T01:54:28.374Z,52.40
2018-12-15T01:56:55.930Z,48.80
2018-12-15T01:59:23.501Z,46.50
2018-12-15T02:01:51.050Z,47.95
2018-12-15T02:04:18.587Z,48.13
2018-12-15T02:06:46.138Z,42.62
2018-12-15T02:09:13.678Z,44.60
2018-12-15T02:11:41.233Z,44.00
2018-12-15T02:14:08.762Z,39.08
2018-12-15T02:16:36.314Z,34.67
2018-12-15T02:19:03.930Z,38.88
2018-12-15T02:21:31.551Z,34.25
2018-12-15T02:23:59.122Z,34.95
2018-12-15T02:26:26.674Z,30.00
2018-12-15T02:28:54.203Z,38.23
2018-12-15T02:31:21.847Z,32.67
2018-12-15T02:33:49.382Z,32.38
2018-12-15T02:36:16.981Z,35.28
2018-12-15T02:38:44.514Z,29.12
2018-12-15T02:41:12.065Z,35.43
2018-12-15T02:43:39.600Z,34.38
2018-12-15T02:46:07.154Z,34.40
2018-12-15T02:48:34.682Z,26.52
2018-12-15T02:51:02.249Z,30.40
2018-12-15T02:53:29.826Z,37.13
2018-12-15T02:55:58.644Z,33.18
2018-12-15T02:58:26.459Z,24.72
2018-12-15T03:00:54.023Z,34.20
2018-12-15T03:03:21.558Z,35.98
2018-12-15T03:05:49.110Z,32.15
2018-12-15T03:08:16.649Z,35.10
2018-12-15T03:10:44.221Z,29.57
2018-12-15T03:13:11.866Z,28.60
2018-12-15T03:15:39.470Z,32.23
2018-12-15T03:18:07.055Z,36.05
2018-12-15T03:20:34.727Z,32.73
2018-12-15T03:23:02.293Z,34.73
2018-12-15T03:25:29.857Z,25.82
2018-12-15T03:27:57.438Z,33.28
2018-12-15T03:30:25.015Z,30.37
2018-12-15T03:32:52.683Z,34.27
2018-12-15T03:35:20.234Z,30.82
2018-12-15T03:37:47.794Z,26.62
2018-12-15T03:40:15.328Z,27.00
2018-12-15T03:42:42.880Z,28.20
2018-12-15T03:45:10.426Z,26.23
2018-12-15T03:47:37.981Z,27.58
2018-12-15T03:50:06.510Z,31.93
2018-12-15T03:52:34.066Z,25.10
2018-12-15T03:55:01.601Z,26.82
2018-12-15T03:57:29.158Z,30.95
2018-12-15T03:59:56.696Z,26.60
2018-12-15T04:02:24.294Z,32.20
2018-12-15T04:04:52.619Z,33.28
2018-12-15T04:07:20.173Z,28.95
2018-12-15T04:09:47.708Z,32.95
2018-12-15T04:12:15.269Z,31.52
2018-12-15T04:14:42.806Z,26.87
2018-12-15T04:17:10.366Z,26.42
2018-12-15T04:19:37.902Z,42.33
2018-12-15T04:22:19.303Z,35.03
2018-12-15T04:24:46.847Z,40.83
2018-12-15T04:27:14.409Z,43.50
2018-12-15T04:29:41.948Z,31.52
2018-12-15T04:32:09.503Z,42.27
2018-12-15T04:34:37.034Z,39.25
2018-12-15T04:37:04.593Z,41.75
2018-12-15T04:39:32.170Z,42.23
2018-12-15T04:41:59.725Z,40.55
2018-12-15T04:44:27.266Z,48.42
2018-12-15T04:46:55.066Z,40.65
2018-12-15T04:49:22.605Z,41.10
2018-12-15T04:51:50.186Z,44.48
2018-12-15T04:54:17.725Z,39.88
2018-12-15T04:56:45.282Z,36.08
2018-12-15T04:59:12.884Z,45.83
2018-12-15T05:01:40.440Z,47.60
2018-12-15T05:04:07.989Z,48.95
2018-12-15T05:06:35.551Z,45.73
2018-12-15T05:09:04.011Z,41.63
2018-12-15T05:11:31.570Z,45.43
2018-12-15T05:13:59.109Z,48.58
2018-12-15T05:16:26.662Z,46.15
2018-12-15T05:18:54.242Z,42.95
2018-12-15T05:21:21.801Z,42.38
2018-12-15T05:23:49.339Z,53.00
2018-12-15T05:26:16.993Z,40.08
2018-12-15T05:28:44.570Z,48.42
2018-12-15T05:31:12.246Z,47.48
2018-12-15T05:33:39.797Z,51.53
2018-12-15T05:36:07.329Z,41.65
2018-12-15T05:38:34.953Z,40.25
2018-12-15T05:41:02.538Z,39.33
2018-12-15T05:43:30.201Z,48.48
2018-12-15T05:45:57.802Z,47.20
2018-12-15T05:48:25.613Z,38.10
2018-12-15T05:50:53.348Z,47.10
2018-12-15T05:53:23.532Z,40.58
2018-12-15T05:55:51.143Z,40.25
2018-12-15T05:58:18.743Z,40.38
2018-12-15T06:00:46.367Z,40.48
2018-12-15T06:03:13.922Z,45.75
2018-12-15T06:05:41.598Z,38.95
2018-12-15T06:08:11.149Z,48.00
2018-12-15T06:10:40.562Z,39.18
2018-12-15T06:13:09.442Z,43.70
2018-12-15T06:15:37.066Z,37.60
2018-12-15T06:18:04.963Z,37.95
2018-12-15T06:20:32.542Z,40.55
2018-12-15T06:23:00.099Z,39.13
2018-12-15T06:25:27.876Z,39.60
2018-12-15T06:27:55.462Z,38.92
2018-12-15T06:30:22.998Z,46.50
2018-12-15T06:32:50.554Z,35.45
2018-12-15T06:35:18.089Z,40.33
2018-12-15T06:37:45.641Z,41.50
2018-12-15T06:40:13.217Z,41.98
2018-12-15T06:42:40.774Z,41.25
2018-12-15T06:45:08.398Z,40.67
2018-12-15T06:47:35.961Z,49.80
2018-12-15T06:50:04.890Z,42.30
2018-12-15T06:52:32.446Z,37.35
2018-12-15T06:54:59.983Z,39.25
2018-12-15T06:57:27.543Z,36.73
2018-12-15T06:59:55.153Z,39.33
2018-12-15T07:02:23.237Z,42.17
2018-12-15T07:04:50.837Z,42.10
2018-12-15T07:07:18.413Z,39.05
2018-12-15T07:09:45.952Z,37.45
2018-12-15T07:12:13.561Z,36.08
2018-12-15T07:14:41.138Z,35.60
2018-12-15T07:17:08.879Z,39.65
2018-12-15T07:19:36.425Z,39.25
2018-12-15T07:22:04.039Z,40.73
2018-12-15T07:24:31.591Z,37.67
2018-12-15T07:26:59.283Z,41.68
2018-12-15T07:29:26.882Z,35.95
2018-12-15T07:31:54.427Z,38.65
2018-12-15T07:34:22.028Z,38.33
2018-12-15T07:36:49.566Z,39.50
2018-12-15T07:39:17.122Z,39.30
2018-12-15T07:41:44.658Z,40.23
2018-12-15T07:44:12.222Z,40.50
2018-12-15T07:46:39.753Z,35.50
2018-12-15T07:49:07.309Z,34.40
2018-12-15T07:51:34.851Z,33.13
2018-12-15T07:54:02.406Z,28.17
2018-12-15T07:56:29.966Z,38.42
2018-12-15T07:58:57.527Z,39.30
2018-12-15T08:01:25.113Z,37.45
2018-12-15T08:03:52.661Z,34.30
2018-12-15T08:06:20.194Z,38.17
2018-12-15T08:08:47.791Z,39.27
2018-12-15T08:11:21.081Z,30.77
2018-12-15T08:13:48.678Z,34.95
2018-12-15T08:16:16.349Z,33.45
2018-12-15T08:18:43.958Z,36.70
2018-12-15T08:21:11.537Z,33.80
2018-12-15T08:23:39.125Z,37.03
2018-12-15T08:26:06.697Z,33.80
2018-12-15T08:28:34.290Z,33.30
2018-12-15T08:31:01.919Z,33.00
2018-12-15T08:33:29.473Z,34.63
2018-12-15T08:35:57.065Z,37.08
2018-12-15T08:38:24.643Z,35.00
2018-12-15T08:40:52.179Z,35.43
2018-12-15T08:43:19.736Z,36.85
2018-12-15T08:45:47.315Z,39.85
2018-12-15T08:48:14.867Z,45.23
2018-12-15T08:50:42.438Z,33.53
2018-12-15T08:53:09.990Z,36.65
2018-12-15T08:55:37.527Z,39.50
2018-12-15T08:58:05.078Z,29.20
2018-12-15T09:00:32.651Z,35.13
2018-12-15T09:03:00.204Z,34.73
2018-12-15T09:05:27.729Z,38.30
2018-12-15T09:07:55.295Z,41.45
2018-12-15T09:10:22.830Z,36.13
2018-12-15T09:12:50.438Z,40.17
2018-12-15T09:15:17.990Z,38.92
2018-12-15T09:17:45.557Z,39.83
2018-12-15T09:20:13.165Z,35.08
2018-12-15T09:22:40.700Z,42.65
2018-12-15T09:25:08.337Z,41.83
2018-12-15T09:27:35.986Z,37.70
2018-12-15T09:30:04.726Z,37.80
2018-12-15T09:32:32.265Z,37.58
2018-12-15T09:34:59.831Z,37.35
2018-12-15T09:37:27.361Z,43.65
2018-12-15T09:39:54.978Z,34.73
2018-12-15T09:42:22.645Z,41.80
2018-12-15T09:44:50.205Z,36.13
2018-12-15T09:47:17.751Z,36.58
2018-12-15T09:49:45.362Z,46.35
2018-12-15T09:52:13.033Z,39.70
2018-12-15T09:54:40.711Z,96.10
2018-12-15T09:57:08.288Z,46.20
2018-12-15T09:59:35.838Z,34.75
2018-12-15T10:02:03.454Z,37.80
2018-12-15T10:04:31.006Z,40.28
2018-12-15T10:06:58.543Z,37.10
2018-12-15T10:09:26.129Z,41.05
2018-12-15T10:11:53.657Z,40.35
2018-12-15T10:14:21.210Z,39.70
2018-12-15T10:16:48.782Z,39.03
2018-12-15T10:19:16.416Z,39.23
2018-12-15T10:21:43.971Z,42.13
2018-12-15T10:24:11.535Z,40.25
2018-12-15T10:26:39.074Z,40.28
2018-12-15T10:29:08.576Z,43.73
2018-12-15T10:31:41.797Z,38.80
2018-12-15T10:34:09.351Z,39.98
2018-12-15T10:36:36.905Z,47.65
2018-12-15T10:39:07.255Z,39.58
2018-12-15T10:41:34.793Z,34.30
2018-12-15T10:44:02.386Z,40.78
2018-12-15T10:46:29.922Z,41.20
2018-12-15T10:48:57.478Z,44.00
2018-12-15T10:51:25.012Z,40.70
2018-12-15T10:53:52.571Z,42.90
2018-12-15T10:56:20.102Z,46.80
2018-12-15T10:58:47.655Z,46.45
2018-12-15T11:01:21.683Z,43.02
2018-12-15T11:03:49.243Z,47.70
2018-12-15T11:06:16.889Z,42.85
2018-12-15T11:08:44.426Z,48.20
2018-12-15T11:11:12.023Z,47.67
2018-12-15T11:13:39.558Z,47.75
2018-12-15T11:16:07.154Z,118.33
2018-12-15T11:18:34.737Z,41.45
2018-12-15T11:21:02.290Z,53.78
2018-12-15T11:23:29.821Z,47.43
2018-12-15T11:25:57.374Z,45.23
2018-12-15T11:28:24.942Z,38.35
2018-12-15T11:30:52.528Z,49.73
2018-12-15T11:33:20.901Z,44.83
2018-12-15T11:35:48.573Z,50.85
2018-12-15T11:38:16.103Z,44.75
2018-12-15T11:40:43.707Z,43.28
2018-12-15T11:43:11.370Z,47.25
2018-12-15T11:45:38.921Z,44.58
2018-12-15T11:48:06.486Z,45.43
2018-12-15T11:50:34.037Z,48.35
2018-12-15T11:53:01.565Z,47.55
2018-12-15T11:55:29.110Z,43.85
2018-12-15T11:57:56.646Z,47.93
2018-12-15T12:00:24.285Z,51.50
2018-12-15T12:02:51.858Z,44.50
2018-12-15T12:05:19.415Z,48.90
2018-12-15T12:07:46.990Z,55.85
2018-12-15T12:10:14.549Z,46.35
2018-12-15T12:12:42.093Z,46.68
2018-12-15T12:15:09.685Z,37.42
2018-12-15T12:17:37.269Z,44.93
2018-12-15T12:20:06.606Z,39.55
2018-12-15T12:22:34.249Z,42.58
2018-12-15T12:25:01.802Z,38.08
2018-12-15T12:27:29.378Z,35.52
2018-12-15T12:29:56.925Z,39.23
2018-12-15T12:32:24.457Z,34.67
2018-12-15T12:34:52.024Z,38.17
2018-12-15T12:37:19.573Z,36.33
2018-12-15T12:39:47.149Z,40.50
2018-12-15T12:42:14.686Z,38.98
2018-12-15T12:44:42.309Z,36.30
2018-12-15T12:47:09.907Z,34.92
2018-12-15T12:49:37.551Z,41.98
2018-12-15T12:52:05.077Z,40.03
2018-12-15T12:54:32.649Z,37.53
2018-12-15T12:57:00.202Z,41.70
2018-12-15T12:59:27.738Z,45.12
2018-12-15T13:01:55.368Z,44.33
2018-12-15T13:04:22.906Z,42.78
2018-12-15T13:06:51.392Z,45.05
2018-12-15T13:09:19.246Z,45.10
2018-12-15T13:11:46.805Z,54.33
2018-12-15T13:14:14.336Z,45.63
2018-12-15T13:16:41.965Z,52.83
2018-12-15T13:19:09.499Z,52.25
2018-12-15T13:21:37.049Z,51.33
2018-12-15T13:24:04.683Z,45.55
2018-12-15T13:26:32.309Z,52.23
2018-12-15T13:28:59.873Z,56.77
2018-12-15T13:31:27.465Z,46.92
2018-12-15T13:33:55.125Z,50.75
2018-12-15T13:36:22.712Z,47.90
2018-12-15T13:38:50.314Z,48.50
2018-12-15T13:41:17.977Z,52.33
2018-12-15T13:43:45.563Z,48.80
2018-12-15T13:46:13.158Z,45.40
2018-12-15T13:48:40.687Z,45.85
2018-12-15T13:51:08.277Z,44.05
2018-12-15T13:53:35.858Z,49.98
2018-12-15T13:56:03.449Z,49.23
2018-12-15T13:58:30.978Z,41.83
2018-12-15T14:00:58.526Z,42.05
2018-12-15T14:03:26.059Z,46.13
2018-12-15T14:05:53.617Z,39.83
2018-12-15T14:08:21.200Z,50.30
2018-12-15T14:10:48.802Z,49.33
2018-12-15T14:13:16.345Z,40.60
2018-12-15T14:15:43.902Z,47.45
2018-12-15T14:18:11.438Z,51.77
2018-12-15T14:20:39.038Z,47.95
2018-12-15T14:23:06.578Z,55.78
2018-12-15T14:25:34.165Z,52.33
2018-12-15T14:28:01.697Z,59.03
2018-12-15T14:30:29.250Z,52.23
2018-12-15T14:32:56.790Z,55.48
2018-12-15T14:35:24.426Z,52.13
2018-12-15T14:37:51.983Z,53.05
2018-12-15T14:40:19.611Z,67.50
2018-12-15T14:42:47.246Z,50.78
2018-12-15T14:45:14.821Z,54.42
2018-12-15T14:47:42.421Z,54.05
2018-12-15T14:50:10.002Z,60.83
2018-12-15T14:52:37.558Z,54.70
2018-12-15T14:55:05.139Z,58.85
2018-12-15T14:57:32.733Z,57.00
2018-12-15T15:00:00.278Z,53.40
2018-12-15T15:02:27.834Z,59.88
2018-12-15T15:04:55.451Z,58.83
2018-12-15T15:07:23.033Z,61.60
2018-12-15T15:09:50.570Z,61.65
2018-12-15T15:12:18.126Z,56.45
2018-12-15T15:14:45.675Z,63.68
2018-12-15T15:17:13.368Z,56.73
2018-12-15T15:19:40.929Z,56.20
2018-12-15T15:22:08.609Z,55.88
2018-12-15T15:24:36.145Z,64.05
2018-12-15T15:27:03.782Z,61.92
2018-12-15T15:29:31.327Z,66.20
2018-12-15T15:31:58.901Z,63.02
2018-12-15T15:34:26.466Z,57.05
2018-12-15T15:36:54.022Z,68.07
2018-12-15T15:39:21.579Z,67.32
2018-12-15T15:41:49.139Z,72.12
2018-12-15T15:44:16.677Z,67.30
2018-12-15T15:46:44.236Z,74.95
2018-12-15T15:49:11.772Z,62.73
2018-12-15T15:51:39.347Z,66.82
2018-12-15T15:54:07.125Z,68.50
2018-12-15T15:56:34.695Z,72.37
2018-12-15T15:59:02.240Z,64.55
2018-12-15T16:01:29.798Z,70.40
2018-12-15T16:03:57.338Z,72.45
2018-12-15T16:06:24.893Z,73.52
2018-12-15T16:08:52.435Z,72.75
2018-12-15T16:11:20.033Z,60.40
2018-12-15T16:13:47.574Z,77.50
2018-12-15T16:16:27.103Z,71.42
2018-12-15T16:18:54.711Z,74.10
2018-12-15T16:21:22.322Z,76.57
2018-12-15T16:23:49.855Z,80.72
2018-12-15T16:26:17.501Z,80.53
2018-12-15T16:28:45.029Z,77.42
2018-12-15T16:31:12.606Z,75.92
2018-12-15T16:33:40.203Z,77.08
2018-12-15T16:36:07.741Z,76.02
2018-12-15T16:38:35.334Z,75.65
2018-12-15T16:41:02.870Z,76.92
2018-12-15T16:43:30.427Z,73.95
2018-12-15T16:45:57.961Z,66.72
2018-12-15T16:48:25.518Z,71.07
2018-12-15T16:50:53.054Z,65.75
2018-12-15T16:53:20.611Z,65.92
2018-12-15T16:55:48.178Z,77.65
2018-12-15T16:58:15.730Z,76.90
2018-12-15T17:00:43.310Z,69.20
2018-12-15T17:03:10.869Z,69.32
2018-12-15T17:05:38.410Z,65.55
2018-12-15T17:08:05.961Z,73.65
2018-12-15T17:10:33.543Z,63.00
2018-12-15T17:13:01.100Z,65.55
2018-12-15T17:15:28.642Z,74.17
2018-12-15T17:17:56.198Z,67.95
2018-12-15T17:20:23.853Z,80.53
2018-12-15T17:22:51.496Z,66.97
2018-12-15T17:25:19.044Z,77.92
2018-12-15T17:27:46.638Z,61.92
2018-12-15T17:30:14.182Z,64.12
2018-12-15T17:32:41.740Z,76.25
2018-12-15T17:35:09.315Z,63.92
2018-12-15T17:37:36.906Z,67.67
2018-12-15T17:40:06.422Z,73.60
2018-12-15T17:42:34.066Z,67.50
2018-12-15T17:45:01.639Z,64.90
2018-12-15T17:47:29.197Z,62.65
2018-12-15T17:49:56.746Z,66.85
2018-12-15T17:52:24.302Z,68.85
2018-12-15T17:54:51.858Z,74.87
2018-12-15T17:57:19.409Z,66.77
2018-12-15T17:59:46.981Z,70.25
2018-12-15T18:02:14.578Z,74.75
2018-12-15T18:04:42.109Z,62.88
2018-12-15T18:07:09.690Z,68.72
2018-12-15T18:09:37.266Z,68.55
2018-12-15T18:12:04.874Z,70.32
2018-12-15T18:14:32.435Z,78.22
2018-12-15T18:17:00.018Z,74.85
2018-12-15T18:19:27.814Z,73.45
2018-12-15T18:21:55.354Z,74.17
2018-12-15T18:24:22.910Z,73.10
2018-12-15T18:26:50.453Z,69.65
2018-12-15T18:29:18.081Z,71.42
2018-12-15T18:31:45.657Z,65.92
2018-12-15T18:34:13.205Z,69.97
2018-12-15T18:36:40.794Z,77.40
2018-12-15T18:39:08.967Z,73.10
2018-12-15T18:41:36.558Z,68.25
2018-12-15T18:44:04.197Z,60.38
2018-12-15T18:46:31.733Z,71.28
2018-12-15T18:48:59.329Z,70.28
2018-12-15T18:51:26.905Z,65.30
2018-12-15T18:53:54.533Z,70.60
2018-12-15T18:56:22.075Z,64.97
2018-12-15T18:58:50.171Z,72.58
2018-12-15T19:01:18.035Z,86.12
2018-12-15T19:03:45.714Z,62.05
2018-12-15T19:06:13.297Z,71.30
2018-12-15T19:08:40.854Z,71.75
2018-12-15T19:11:08.390Z,70.47
2018-12-15T19:13:35.950Z,75.83
2018-12-15T19:16:03.570Z,81.47
2018-12-15T19:18:31.126Z,70.70
2018-12-15T19:20:58.706Z,82.62
2018-12-15T19:23:26.257Z,69.53
2018-12-15T19:25:53.791Z,75.60
2018-12-15T19:28:21.356Z,86.78
2018-12-15T19:30:48.891Z,82.17
2018-12-15T19:33:16.459Z,88.15
2018-12-15T19:35:43.997Z,87.10
2018-12-15T19:38:11.562Z,93.85
2018-12-15T19:40:39.099Z,75.83
2018-12-15T19:43:06.742Z,79.72
2018-12-15T19:45:34.323Z,75.08
2018-12-15T19:48:01.923Z,70.08
2018-12-15T19:50:29.458Z,75.15
2018-12-15T19:52:57.022Z,66.22
2018-12-15T19:55:24.567Z,76.62
2018-12-15T19:57:52.121Z,81.25
2018-12-15T20:00:19.747Z,79.62
2018-12-15T20:02:47.283Z,74.90
2018-12-15T20:05:14.881Z,71.87
2018-12-15T20:07:42.475Z,70.55
2018-12-15T20:10:10.034Z,69.00
2018-12-15T20:12:37.562Z,71.92
2018-12-15T20:15:05.333Z,77.92
2018-12-15T20:17:33.041Z,68.70
2018-12-15T20:20:00.605Z,69.15
2018-12-15T20:22:28.391Z,68.45
2018-12-15T20:24:56.302Z,61.58
2018-12-15T20:27:23.842Z,71.10
2018-12-15T20:29:51.408Z,70.83
2018-12-15T20:32:18.965Z,66.85
2018-12-15T20:34:46.523Z,70.25
2018-12-15T20:37:14.073Z,62.38
2018-12-15T20:39:41.626Z,71.17
2018-12-15T20:42:09.341Z,72.53
2018-12-15T20:44:41.692Z,68.87
2018-12-15T20:47:06.485Z,74.03
2018-12-15T20:49:34.067Z,76.57
2018-12-15T20:52:01.609Z,69.03
2018-12-15T20:54:29.170Z,67.00
2018-12-15T20:56:56.709Z,70.65
2018-12-15T20:59:24.270Z,64.05
2018-12-15T21:01:51.872Z,70.78
2018-12-15T21:04:19.431Z,86.08
2018-12-15T21:06:46.965Z,72.82
2018-12-15T21:09:14.546Z,76.87
2018-12-15T21:11:42.089Z,64.42
2018-12-15T21:14:09.642Z,67.37
2018-12-15T21:16:37.191Z,72.05
2018-12-15T21:19:04.750Z,67.32
2018-12-15T21:21:32.294Z,69.47
2018-12-15T21:23:59.849Z,67.25
2018-12-15T21:26:27.383Z,68.72
2018-12-15T21:28:54.937Z,64.32
2018-12-15T21:31:22.466Z,67.10
2018-12-15T21:33:50.029Z,64.65
2018-12-15T21:36:17.566Z,56.10
2018-12-15T21:38:45.212Z,72.30
2018-12-15T21:41:12.750Z,67.53
2018-12-15T21:43:40.286Z,71.20
2018-12-15T21:46:07.842Z,70.65
2018-12-15T21:48:35.378Z,66.07
2018-12-15T21:51:02.974Z,74.67
2018-12-15T21:53:30.541Z,66.57
2018-12-15T21:55:58.097Z,72.42
2018-12-15T21:58:25.634Z,70.50
2018-12-15T22:00:53.189Z,68.33
2018-12-15T22:03:20.748Z,60.98
2018-12-15T22:05:48.308Z,79.37
2018-12-15T22:08:15.846Z,60.12
2018-12-15T22:10:43.394Z,87.82
2018-12-15T22:13:10.930Z,59.08
2018-12-15T22:15:38.615Z,63.60
2018-12-15T22:18:06.158Z,67.03
2018-12-15T22:20:33.949Z,62.48
2018-12-15T22:23:01.482Z,56.75
2018-12-15T22:25:29.041Z,57.50
2018-12-15T22:27:56.655Z,65.47
2018-12-15T22:30:24.201Z,63.00
2018-12-15T22:32:51.776Z,54.67
2018-12-15T22:35:19.339Z,59.45
2018-12-15T22:37:46.948Z,61.85
2018-12-15T22:40:14.498Z,57.03
2018-12-15T22:42:42.053Z,52.53
2018-12-15T22:45:09.760Z,64.07
2018-12-15T22:47:37.361Z,56.85
2018-12-15T22:50:05.793Z,52.35
2018-12-15T22:52:33.322Z,49.05
2018-12-15T22:55:00.878Z,49.75
2018-12-15T22:57:28.415Z,45.25
2018-12-15T22:59:56.089Z,48.08
2018-12-15T23:02:23.688Z,47.83
2018-12-15T23:04:51.246Z,47.55
2018-12-15T23:07:18.818Z,43.75
2018-12-15T23:09:46.415Z,53.42
2018-12-15T23:12:13.989Z,47.78
2018-12-15T23:14:41.582Z,43.78
2018-12-15T23:17:09.110Z,63.08
2018-12-15T23:19:36.666Z,43.98
2018-12-15T23:22:04.298Z,46.70
2018-12-15T23:24:31.846Z,45.88
2018-12-15T23:26:59.383Z,45.20
2018-12-15T23:29:26.969Z,49.77
2018-12-15T23:31:54.526Z,47.38
2018-12-15T23:34:22.111Z,45.20
2018-12-15T23:36:49.666Z,50.88
2018-12-15T23:39:17.198Z,53.15
2018-12-15T23:41:44.758Z,42.80
2018-12-15T23:44:12.293Z,46.85
2018-12-15T23:46:39.848Z,45.33
2018-12-15T23:49:07.381Z,48.35
2018-12-15T23:51:34.933Z,46.73
2018-12-15T23:54:02.474Z,50.58
2018-12-15T23:56:30.031Z,44.10
2018-12-15T23:58:57.569Z,44.45
